地図

経路データ

SID SEASON NUMBER BASIN SUBBASIN NAME ISO_TIME NATURE LAT LON WMO_WIND WMO_PRES WMO_AGENCY TRACK_TYPE DIST2LAND LANDFALL IFLAG USA_AGENCY USA_ATCF_ID USA_LAT USA_LON USA_RECORD USA_STATUS USA_WIND USA_PRES USA_SSHS USA_R34_NE USA_R34_SE USA_R34_SW USA_R34_NW USA_R50_NE USA_R50_SE USA_R50_SW USA_R50_NW USA_R64_NE USA_R64_SE USA_R64_SW USA_R64_NW USA_POCI USA_ROCI USA_RMW USA_EYE TOKYO_LAT TOKYO_LON TOKYO_GRADE TOKYO_WIND TOKYO_PRES TOKYO_R50_DIR TOKYO_R50_LONG TOKYO_R50_SHORT TOKYO_R30_DIR TOKYO_R30_LONG TOKYO_R30_SHORT TOKYO_LAND CMA_LAT CMA_LON CMA_CAT CMA_WIND CMA_PRES HKO_LAT HKO_LON HKO_CAT HKO_WIND HKO_PRES NEWDELHI_LAT NEWDELHI_LON NEWDELHI_GRADE NEWDELHI_WIND NEWDELHI_PRES NEWDELHI_CI NEWDELHI_DP NEWDELHI_POCI REUNION_LAT REUNION_LON REUNION_TYPE REUNION_WIND REUNION_PRES REUNION_TNUM REUNION_CI REUNION_RMW REUNION_R34_NE REUNION_R34_SE REUNION_R34_SW REUNION_R34_NW REUNION_R50_NE REUNION_R50_SE REUNION_R50_SW REUNION_R50_NW REUNION_R64_NE REUNION_R64_SE REUNION_R64_SW REUNION_R64_NW BOM_LAT BOM_LON BOM_TYPE BOM_WIND BOM_PRES BOM_TNUM BOM_CI BOM_RMW BOM_R34_NE BOM_R34_SE BOM_R34_SW BOM_R34_NW BOM_R50_NE BOM_R50_SE BOM_R50_SW BOM_R50_NW BOM_R64_NE BOM_R64_SE BOM_R64_SW BOM_R64_NW BOM_ROCI BOM_POCI BOM_EYE BOM_POS_METHOD BOM_PRES_METHOD NADI_LAT NADI_LON NADI_CAT NADI_WIND NADI_PRES WELLINGTON_LAT WELLINGTON_LON WELLINGTON_WIND WELLINGTON_PRES DS824_LAT DS824_LON DS824_STAGE DS824_WIND DS824_PRES TD9636_LAT TD9636_LON TD9636_STAGE TD9636_WIND TD9636_PRES TD9635_LAT TD9635_LON TD9635_WIND TD9635_PRES TD9635_ROCI NEUMANN_LAT NEUMANN_LON NEUMANN_CLASS NEUMANN_WIND NEUMANN_PRES MLC_LAT MLC_LON MLC_CLASS MLC_WIND MLC_PRES USA_GUST BOM_GUST BOM_GUST_PER REUNION_GUST REUNION_GUST_PER USA_SEAHGT USA_SEARAD_NE USA_SEARAD_SE USA_SEARAD_SW USA_SEARAD_NW STORM_SPEED STORM_DIR
1889225N20115 1889 13 WP MM NOT_NAMED 1889-08-12 16:00:00 NR 20.1000 114.700 main 249 235 __________O___ -1 20.1000 114.700 4 6 288
1889225N20115 1889 13 WP MM NOT_NAMED 1889-08-12 18:00:00 NR 20.1569 114.510 main 235 227 __________P___ -1 20.1569 114.510 4 6 288
1889225N20115 1889 13 WP MM NOT_NAMED 1889-08-12 21:00:00 NR 20.2394 114.233 main 227 206 __________P___ -1 20.2394 114.233 4 5 288
1889225N20115 1889 13 WP MM NOT_NAMED 1889-08-13 00:00:00 NR 20.3153 113.979 main 206 187 __________P___ -1 20.3153 113.979 4 5 288
1889225N20115 1889 13 WP MM NOT_NAMED 1889-08-13 03:00:00 NR 20.3810 113.762 main 187 182 __________P___ -1 20.3810 113.762 4 4 288
1889225N20115 1889 13 WP MM NOT_NAMED 1889-08-13 04:00:00 NR 20.4000 113.700 main 182 178 __________O___ -1 20.4000 113.700 4 3 288
1889225N20115 1889 13 WP MM NOT_NAMED 1889-08-13 06:00:00 NR 20.4336 113.593 main 178 164 __________P___ -1 20.4336 113.593 4 3 289
1889225N20115 1889 13 WP MM NOT_NAMED 1889-08-13 09:00:00 NR 20.4777 113.465 main 164 161 __________P___ -1 20.4777 113.465 4 2 292
1889225N20115 1889 13 WP MM NOT_NAMED 1889-08-13 12:00:00 NR 20.5227 113.355 main 161 146 __________P___ -1 20.5227 113.355 4 2 296
1889225N20115 1889 13 WP MM NOT_NAMED 1889-08-13 15:00:00 NR 20.5778 113.242 main 146 146 __________P___ -1 20.5778 113.242 4 2 298
1889225N20115 1889 13 WP MM NOT_NAMED 1889-08-13 16:00:00 NR 20.6000 113.200 main 146 133 __________O___ -1 20.6000 113.200 4 3 298
1889225N20115 1889 13 WP MM NOT_NAMED 1889-08-13 18:00:00 NR 20.6553 113.090 main 133 116 __________P___ -1 20.6553 113.090 4 4 299
1889225N20115 1889 13 WP MM NOT_NAMED 1889-08-13 21:00:00 NR 20.7508 112.911 main 116 98 __________P___ -1 20.7508 112.911 4 4 301
1889225N20115 1889 13 WP MM NOT_NAMED 1889-08-14 00:00:00 NR 20.8559 112.728 main 98 84 __________P___ -1 20.8559 112.728 4 4 303
1889225N20115 1889 13 WP MM NOT_NAMED 1889-08-14 03:00:00 NR 20.9642 112.554 main 84 80 __________P___ -1 20.9642 112.554 4 4 304
1889225N20115 1889 13 WP MM NOT_NAMED 1889-08-14 04:00:00 NR 21.0000 112.500 main 80 67 __________O___ -1 21.0000 112.500 4 3 306
1889225N20115 1889 13 WP MM NOT_NAMED 1889-08-14 06:00:00 NR 21.0640 112.408 main 67 55 __________P___ -1 21.0640 112.408 4 3 309
1889225N20115 1889 13 WP MM NOT_NAMED 1889-08-14 09:00:00 NR 21.1599 112.282 main 55 44 __________P___ -1 21.1599 112.282 4 3 311
1889225N20115 1889 13 WP MM NOT_NAMED 1889-08-14 12:00:00 NR 21.2586 112.164 main 44 30 __________P___ -1 21.2586 112.164 4 3 312
1889225N20115 1889 13 WP MM NOT_NAMED 1889-08-14 15:00:00 NR 21.3633 112.043 main 30 30 __________P___ -1 21.3633 112.043 4 3 312
1889225N20115 1889 13 WP MM NOT_NAMED 1889-08-14 16:00:00 NR 21.4000 112.000 main 30 15 __________O___ -1 21.4000 112.000 4 3 313
1889225N20115 1889 13 WP MM NOT_NAMED 1889-08-14 18:00:00 NR 21.4776 111.911 main 15 0 __________P___ -1 21.4776 111.911 4 4 313
1889225N20115 1889 13 WP MM NOT_NAMED 1889-08-14 21:00:00 NR 21.6003 111.771 main 0 0 __________P___ -1 21.6003 111.771 4 4 313
1889225N20115 1889 13 WP MM NOT_NAMED 1889-08-15 00:00:00 NR 21.7278 111.621 main 0 0 __________P___ -1 21.7278 111.621 4 4 311
1889225N20115 1889 13 WP MM NOT_NAMED 1889-08-15 03:00:00 NR 21.8571 111.458 main 0 0 __________P___ -1 21.8571 111.458 4 4 310
1889225N20115 1889 13 WP MM NOT_NAMED 1889-08-15 04:00:00 NR 21.9000 111.400 main 0 0 __________O___ -1 21.9000 111.400 4 4 307
1889225N20115 1889 13 WP MM NOT_NAMED 1889-08-15 06:00:00 NR 21.9860 111.275 main 0 0 __________P___ -1 21.9860 111.275 4 4 305
1889225N20115 1889 13 WP MM NOT_NAMED 1889-08-15 09:00:00 NR 22.1150 111.076 main 0 0 __________P___ -1 22.1150 111.076 4 5 304
1889225N20115 1889 13 WP MM NOT_NAMED 1889-08-15 12:00:00 NR 22.2413 110.870 main 0 0 __________P___ -1 22.2413 110.870 4 5 303
1889225N20115 1889 13 WP MM NOT_NAMED 1889-08-15 15:00:00 NR 22.3617 110.666 main 0 0 __________P___ -1 22.3617 110.666 4 4 302
1889225N20115 1889 13 WP MM NOT_NAMED 1889-08-15 16:00:00 NR 22.4000 110.600 main 0 0 __________O___ -1 22.4000 110.600 4 4 302
1889225N20115 1889 13 WP MM NOT_NAMED 1889-08-15 18:00:00 NR 22.4735 110.473 main 0 0 __________P___ -1 22.4735 110.473 4 4 302
1889225N20115 1889 13 WP MM NOT_NAMED 1889-08-15 21:00:00 NR 22.5770 110.293 main 0 0 __________P___ -1 22.5770 110.293 4 4 302
1889225N20115 1889 13 WP MM NOT_NAMED 1889-08-16 00:00:00 NR 22.6746 110.122 main 0 0 __________P___ -1 22.6746 110.122 4 4 302
1889225N20115 1889 13 WP MM NOT_NAMED 1889-08-16 03:00:00 NR 22.7689 109.955 main 0 0 __________P___ -1 22.7689 109.955 4 4 301
1889225N20115 1889 13 WP MM NOT_NAMED 1889-08-16 04:00:00 NR 22.8000 109.900 main 0 __________O___ -1 22.8000 109.900 7 4 297

デジタル台風データ・検索

IBTrACS Databaseについて

本データベースは、米国NOAAが公開する1842年以降の世界の熱帯低気圧のベストトラックデータアーカイブInternational Best Track Archive for Climate Stewardship (IBTrACS)を、ウェブで閲覧しやすい形式に変換したものです。

最終更新日:2021-10-21